createdAt,value
2023-05-21T00:00:30.185Z,6.55
2023-05-21T00:02:59.203Z,7.07
2023-05-21T00:05:26.585Z,6.32
2023-05-21T00:07:54.932Z,6.78
2023-05-21T00:10:22.560Z,6.32
2023-05-21T00:12:49.763Z,7.00
2023-05-21T00:15:16.887Z,7.40
2023-05-21T00:17:46.083Z,6.93
2023-05-21T00:20:13.477Z,6.43
2023-05-21T00:22:42.431Z,6.30
2023-05-21T00:25:11.698Z,5.95
2023-05-21T00:27:38.899Z,6.72
2023-05-21T00:30:06.750Z,6.28
2023-05-21T00:32:34.448Z,6.60
2023-05-21T00:35:01.584Z,6.12
2023-05-21T00:37:34.257Z,6.32
2023-05-21T00:40:02.252Z,6.85
2023-05-21T00:42:30.720Z,5.72
2023-05-21T00:44:58.194Z,6.70
2023-05-21T00:47:29.603Z,7.05
2023-05-21T00:49:56.987Z,6.03
2023-05-21T00:52:26.782Z,7.30
2023-05-21T00:54:54.334Z,6.60
2023-05-21T00:57:23.968Z,6.85
2023-05-21T00:59:52.557Z,6.50
2023-05-21T01:02:20.150Z,6.22
2023-05-21T01:04:47.315Z,6.32
2023-05-21T01:07:14.690Z,6.40
2023-05-21T01:09:43.105Z,6.43
2023-05-21T01:12:11.343Z,6.20
2023-05-21T01:14:39.378Z,6.82
2023-05-21T01:17:10.451Z,6.25
2023-05-21T01:19:37.843Z,5.70
2023-05-21T01:22:07.455Z,6.80
2023-05-21T01:24:35.638Z,7.28
2023-05-21T01:27:03.923Z,6.37
2023-05-21T01:29:31.041Z,6.32
2023-05-21T01:32:36.364Z,6.53
2023-05-21T01:35:25.430Z,6.82
2023-05-21T01:37:58.473Z,6.53
2023-05-21T01:40:40.045Z,6.12
2023-05-21T01:43:08.457Z,6.15
2023-05-21T01:45:38.993Z,7.00
2023-05-21T01:48:07.981Z,6.82
2023-05-21T01:50:37.774Z,6.70
2023-05-21T01:53:05.894Z,6.25
2023-05-21T01:55:33.079Z,6.85
2023-05-21T01:58:02.438Z,6.18
2023-05-21T02:00:32.323Z,6.85
2023-05-21T02:02:59.867Z,6.40
2023-05-21T02:05:27.034Z,6.78
2023-05-21T02:07:54.916Z,6.50
2023-05-21T02:10:22.818Z,6.20
2023-05-21T02:12:49.940Z,5.72
2023-05-21T02:15:19.802Z,6.40
2023-05-21T02:17:47.316Z,6.60
2023-05-21T02:20:14.971Z,6.10
2023-05-21T02:22:45.618Z,5.90
2023-05-21T02:25:14.647Z,6.47
2023-05-21T02:27:42.842Z,6.30
2023-05-21T02:30:11.895Z,5.90
2023-05-21T02:32:42.657Z,6.30
2023-05-21T02:35:12.302Z,6.37
2023-05-21T02:37:44.237Z,6.62
2023-05-21T02:40:12.872Z,6.10
2023-05-21T02:42:41.270Z,6.10
2023-05-21T02:45:10.109Z,6.30
2023-05-21T02:47:38.697Z,6.03
2023-05-21T02:50:08.608Z,5.97
2023-05-21T02:52:36.676Z,6.28
2023-05-21T02:55:04.248Z,6.20
2023-05-21T02:57:31.276Z,6.22
2023-05-21T02:59:58.392Z,6.05
2023-05-21T03:02:26.096Z,6.32
2023-05-21T03:04:54.641Z,6.60
2023-05-21T03:07:21.819Z,6.43
2023-05-21T03:09:49.195Z,5.55
2023-05-21T03:12:16.225Z,6.03
2023-05-21T03:14:44.228Z,5.57
2023-05-21T03:17:14.074Z,5.25
2023-05-21T03:19:42.142Z,5.28
2023-05-21T03:22:09.539Z,6.40
2023-05-21T03:24:38.614Z,5.95
2023-05-21T03:27:08.931Z,5.30
2023-05-21T03:29:36.304Z,5.95
2023-05-21T03:32:03.977Z,5.37
2023-05-21T03:34:34.381Z,5.55
2023-05-21T03:37:02.644Z,6.00
2023-05-21T03:39:29.802Z,5.93
2023-05-21T03:41:57.045Z,6.45
2023-05-21T03:44:24.687Z,5.40
2023-05-21T03:46:51.956Z,5.57
2023-05-21T03:49:20.365Z,5.25
2023-05-21T03:51:48.160Z,5.03
2023-05-21T03:54:16.724Z,5.37
2023-05-21T03:56:43.922Z,5.55
2023-05-21T03:59:11.891Z,5.50
2023-05-21T04:01:39.229Z,6.10
2023-05-21T04:04:07.806Z,5.32
2023-05-21T04:06:35.749Z,5.37
2023-05-21T04:09:04.839Z,5.95
2023-05-21T04:11:32.328Z,5.60
2023-05-21T04:13:59.375Z,5.95
2023-05-21T04:16:26.446Z,5.28
2023-05-21T04:18:55.551Z,4.68
2023-05-21T04:21:22.785Z,5.03
2023-05-21T04:23:49.838Z,4.80
2023-05-21T04:26:18.421Z,5.20
2023-05-21T04:28:46.264Z,5.30
2023-05-21T04:31:14.146Z,4.70
2023-05-21T04:33:46.029Z,4.78
2023-05-21T04:36:13.481Z,4.87
2023-05-21T04:38:41.864Z,4.40
2023-05-21T04:41:10.870Z,5.05
2023-05-21T04:43:38.345Z,5.22
2023-05-21T04:46:06.047Z,5.93
2023-05-21T04:48:33.848Z,5.18
2023-05-21T04:51:01.498Z,5.43
2023-05-21T04:53:29.193Z,4.85
2023-05-21T04:55:59.374Z,5.05
2023-05-21T04:58:27.924Z,4.50
2023-05-21T05:00:55.898Z,4.70
2023-05-21T05:03:23.398Z,5.05
2023-05-21T05:05:51.646Z,5.28
2023-05-21T05:08:21.614Z,5.07
2023-05-21T05:10:48.990Z,5.25
2023-05-21T05:13:16.098Z,5.00
2023-05-21T05:15:43.776Z,5.22
2023-05-21T05:18:12.017Z,4.97
2023-05-21T05:20:40.744Z,5.10
2023-05-21T05:23:07.854Z,5.07
2023-05-21T05:25:35.331Z,4.68
2023-05-21T05:28:02.720Z,5.15
2023-05-21T05:30:29.930Z,4.90
2023-05-21T05:32:58.270Z,4.40
2023-05-21T05:35:25.516Z,4.80
2023-05-21T05:37:52.622Z,4.97
2023-05-21T05:40:20.144Z,5.05
2023-05-21T05:42:49.413Z,5.20
2023-05-21T05:45:16.782Z,4.68
2023-05-21T05:47:44.205Z,4.78
2023-05-21T05:50:11.703Z,4.85
2023-05-21T05:52:38.816Z,4.32
2023-05-21T05:55:08.943Z,4.65
2023-05-21T05:57:36.281Z,4.60
2023-05-21T06:00:07.253Z,4.18
2023-05-21T06:02:39.384Z,4.15
2023-05-21T06:05:09.894Z,4.12
2023-05-21T06:07:40.730Z,4.20
2023-05-21T06:10:08.719Z,4.22
2023-05-21T06:12:35.962Z,4.37
2023-05-21T06:15:03.088Z,4.00
2023-05-21T06:17:31.733Z,4.60
2023-05-21T06:19:59.143Z,3.90
2023-05-21T06:22:26.919Z,4.60
2023-05-21T06:24:55.064Z,3.72
2023-05-21T06:27:22.182Z,4.18
2023-05-21T06:29:49.547Z,4.45
2023-05-21T06:32:17.289Z,4.45
2023-05-21T06:34:44.573Z,4.78
2023-05-21T06:37:11.684Z,3.80
2023-05-21T06:39:39.160Z,4.30
2023-05-21T06:42:06.478Z,3.78
2023-05-21T06:44:38.228Z,4.12
2023-05-21T06:47:06.859Z,4.87
2023-05-21T06:49:34.470Z,4.12
2023-05-21T06:52:02.237Z,3.90
2023-05-21T06:54:29.804Z,4.62
2023-05-21T06:56:56.921Z,3.90
2023-05-21T06:59:24.533Z,4.43
2023-05-21T07:01:52.008Z,3.92
2023-05-21T07:04:19.547Z,4.28
2023-05-21T07:06:46.827Z,4.68
2023-05-21T07:09:14.328Z,4.25
2023-05-21T07:11:41.818Z,4.18
2023-05-21T07:14:09.239Z,5.50
2023-05-21T07:16:37.119Z,4.12
2023-05-21T07:19:04.341Z,4.87
2023-05-21T07:21:31.761Z,4.07
2023-05-21T07:23:59.325Z,4.18
2023-05-21T07:26:26.607Z,3.97
2023-05-21T07:28:53.683Z,4.72
2023-05-21T07:31:21.260Z,4.50
2023-05-21T07:33:48.644Z,4.90
2023-05-21T07:36:16.858Z,4.07
2023-05-21T07:38:45.142Z,4.90
2023-05-21T07:41:12.925Z,4.57
2023-05-21T07:43:40.141Z,4.00
2023-05-21T07:46:08.590Z,4.30
2023-05-21T07:48:36.088Z,4.28
2023-05-21T07:51:03.981Z,4.18
2023-05-21T07:53:32.451Z,4.32
2023-05-21T07:56:00.685Z,4.10
2023-05-21T07:58:28.309Z,3.87
2023-05-21T08:00:55.974Z,4.60
2023-05-21T08:03:27.896Z,4.80
2023-05-21T08:05:55.160Z,4.07
2023-05-21T08:08:23.430Z,4.03
2023-05-21T08:10:52.489Z,3.80
2023-05-21T08:13:20.050Z,4.03
2023-05-21T08:15:50.104Z,4.25
2023-05-21T08:18:20.099Z,3.83
2023-05-21T08:20:48.432Z,3.92
2023-05-21T08:23:16.070Z,4.10
2023-05-21T08:25:45.706Z,4.18
2023-05-21T08:28:12.768Z,4.18
2023-05-21T08:30:41.250Z,3.85
2023-05-21T08:33:08.662Z,4.70
2023-05-21T08:35:35.950Z,4.00
2023-05-21T08:38:03.760Z,4.15
2023-05-21T08:40:31.667Z,4.35
2023-05-21T08:42:58.769Z,4.45
2023-05-21T08:45:26.574Z,4.70
2023-05-21T08:47:57.753Z,4.45
2023-05-21T08:50:27.490Z,4.47
2023-05-21T08:52:55.573Z,4.18
2023-05-21T08:55:23.655Z,4.45
2023-05-21T08:57:50.910Z,4.60
2023-05-21T09:00:21.072Z,4.50
2023-05-21T09:02:48.561Z,4.50
2023-05-21T09:05:17.693Z,4.10
2023-05-21T09:07:55.256Z,4.70
2023-05-21T09:10:26.076Z,4.43
2023-05-21T09:12:53.593Z,4.85
2023-05-21T09:15:21.194Z,5.35
2023-05-21T09:17:48.956Z,3.85
2023-05-21T09:20:18.158Z,4.50
2023-05-21T09:22:49.177Z,4.45
2023-05-21T09:25:21.539Z,5.12
2023-05-21T09:27:48.818Z,4.40
2023-05-21T09:30:17.902Z,4.43
2023-05-21T09:32:46.308Z,4.65
2023-05-21T09:35:14.871Z,3.95
2023-05-21T09:37:45.110Z,4.55
2023-05-21T09:40:16.177Z,4.80
2023-05-21T09:42:48.173Z,4.28
2023-05-21T09:45:19.674Z,4.28
2023-05-21T09:47:48.500Z,4.53
2023-05-21T09:50:23.798Z,4.53
2023-05-21T09:52:53.029Z,4.25
2023-05-21T09:55:24.290Z,4.75
2023-05-21T09:57:52.522Z,4.70
2023-05-21T10:00:28.048Z,4.50
2023-05-21T10:02:56.918Z,4.30
2023-05-21T10:05:26.695Z,4.18
2023-05-21T10:08:04.620Z,4.25
2023-05-21T10:10:32.518Z,4.50
2023-05-21T10:13:07.076Z,4.43
2023-05-21T10:15:44.921Z,4.37
2023-05-21T10:18:13.300Z,4.28
2023-05-21T10:20:41.299Z,4.43
2023-05-21T10:23:10.472Z,4.15
2023-05-21T10:25:37.679Z,4.50
2023-05-21T10:28:06.933Z,4.30
2023-05-21T10:30:34.824Z,4.55
2023-05-21T10:33:02.204Z,4.10
2023-05-21T10:35:30.076Z,4.45
2023-05-21T10:37:57.643Z,4.22
2023-05-21T10:40:24.935Z,3.80
2023-05-21T10:42:58.891Z,3.80
2023-05-21T10:45:42.950Z,4.05
2023-05-21T10:48:39.600Z,4.00
2023-05-21T10:51:20.345Z,3.87
2023-05-21T10:54:08.839Z,4.25
2023-05-21T10:56:57.634Z,3.50
2023-05-21T10:59:44.451Z,4.30
2023-05-21T11:02:13.842Z,3.97
2023-05-21T11:04:43.387Z,4.00
2023-05-21T11:07:12.249Z,4.10
2023-05-21T11:09:39.397Z,3.80
2023-05-21T11:12:09.806Z,3.42
2023-05-21T11:14:41.035Z,4.18
2023-05-21T11:17:36.579Z,4.15
2023-05-21T11:20:16.791Z,3.80
2023-05-21T11:22:46.625Z,3.87
2023-05-21T11:25:15.558Z,3.78
2023-05-21T11:27:42.701Z,4.37
2023-05-21T11:30:15.601Z,3.75
2023-05-21T11:33:07.515Z,4.03
2023-05-21T11:35:50.318Z,4.03
2023-05-21T11:38:18.151Z,4.15
2023-05-21T11:40:55.571Z,4.12
2023-05-21T11:43:22.902Z,3.60
2023-05-21T11:45:52.633Z,4.43
2023-05-21T11:48:21.441Z,4.53
2023-05-21T11:50:48.740Z,4.00
2023-05-21T11:53:18.069Z,4.00
2023-05-21T11:55:47.928Z,3.72
2023-05-21T11:58:16.604Z,3.70
2023-05-21T12:00:43.772Z,3.90
2023-05-21T12:03:14.079Z,4.37
2023-05-21T12:05:48.453Z,3.70
2023-05-21T12:08:25.638Z,4.03
2023-05-21T12:10:59.815Z,4.57
2023-05-21T12:13:28.058Z,4.07
2023-05-21T12:15:55.261Z,4.00
2023-05-21T12:18:22.461Z,3.90
2023-05-21T12:20:52.015Z,3.78
2023-05-21T12:23:28.241Z,3.87
2023-05-21T12:25:56.295Z,3.87
2023-05-21T12:28:24.786Z,5.43
2023-05-21T12:30:53.663Z,4.22
2023-05-21T12:33:23.139Z,4.20
2023-05-21T12:35:52.514Z,4.00
2023-05-21T12:38:19.683Z,4.25
2023-05-21T12:40:47.129Z,3.90
2023-05-21T12:43:14.284Z,4.18
2023-05-21T12:45:41.415Z,4.20
2023-05-21T12:48:08.940Z,4.05
2023-05-21T12:50:39.630Z,3.85
2023-05-21T12:53:09.297Z,3.25
2023-05-21T12:55:36.671Z,4.22
2023-05-21T12:58:05.587Z,4.25
2023-05-21T13:00:33.326Z,3.85
2023-05-21T13:03:01.912Z,3.90
2023-05-21T13:05:29.122Z,4.03
2023-05-21T13:07:56.152Z,5.05
2023-05-21T13:10:23.552Z,4.50
2023-05-21T13:12:50.680Z,3.72
2023-05-21T13:15:18.074Z,3.78
2023-05-21T13:17:46.412Z,4.25
2023-05-21T13:20:15.912Z,4.12
2023-05-21T13:22:47.304Z,4.15
2023-05-21T13:25:21.141Z,3.80
2023-05-21T13:27:49.374Z,4.45
2023-05-21T13:30:17.066Z,4.18
2023-05-21T13:32:44.743Z,4.62
2023-05-21T13:35:12.418Z,3.85
2023-05-21T13:37:40.977Z,4.43
2023-05-21T13:40:16.712Z,4.05
2023-05-21T13:42:45.521Z,3.72
2023-05-21T13:45:15.282Z,4.37
2023-05-21T13:47:43.885Z,4.47
2023-05-21T13:50:11.682Z,4.78
2023-05-21T13:52:39.162Z,4.30
2023-05-21T13:55:06.720Z,4.20
2023-05-21T13:57:34.267Z,4.07
2023-05-21T14:00:01.743Z,3.87
2023-05-21T14:02:29.271Z,4.03
2023-05-21T14:04:57.165Z,3.92
2023-05-21T14:07:24.237Z,4.35
2023-05-21T14:09:52.342Z,4.40
2023-05-21T14:12:19.785Z,4.37
2023-05-21T14:14:49.642Z,4.00
2023-05-21T14:17:16.737Z,4.05
2023-05-21T14:19:44.067Z,4.78
2023-05-21T14:22:11.303Z,4.07
2023-05-21T14:24:38.392Z,4.60
2023-05-21T14:27:05.809Z,4.32
2023-05-21T14:29:33.497Z,3.90
2023-05-21T14:32:00.578Z,3.80
2023-05-21T14:34:27.931Z,4.47
2023-05-21T14:36:55.014Z,4.90
2023-05-21T14:39:22.426Z,3.75
2023-05-21T14:41:49.839Z,3.90
2023-05-21T14:44:16.895Z,3.85
2023-05-21T14:46:44.085Z,4.15
2023-05-21T14:49:12.240Z,4.07
2023-05-21T14:51:39.312Z,5.07
2023-05-21T14:54:06.450Z,4.10
2023-05-21T14:56:33.808Z,4.30
2023-05-21T14:59:00.938Z,3.85
2023-05-21T15:01:28.158Z,4.00
2023-05-21T15:03:56.935Z,3.95
2023-05-21T15:06:24.425Z,4.15
2023-05-21T15:08:51.470Z,4.30
2023-05-21T15:11:18.812Z,4.20
2023-05-21T15:13:46.458Z,4.65
2023-05-21T15:16:13.571Z,4.47
2023-05-21T15:18:40.979Z,4.72
2023-05-21T15:21:08.082Z,4.72
2023-05-21T15:23:35.109Z,5.55
2023-05-21T15:26:02.490Z,5.15
2023-05-21T15:28:29.573Z,4.50
2023-05-21T15:30:56.736Z,4.18
2023-05-21T15:33:24.105Z,4.10
2023-05-21T15:35:51.303Z,3.87
2023-05-21T15:38:18.476Z,3.90
2023-05-21T15:40:47.133Z,4.18
2023-05-21T15:43:14.152Z,4.47
2023-05-21T15:45:41.370Z,4.70
2023-05-21T15:48:08.910Z,4.00
2023-05-21T15:50:36.255Z,4.07
2023-05-21T15:53:04.380Z,3.90
2023-05-21T15:55:33.415Z,4.00
2023-05-21T15:58:02.436Z,4.20
2023-05-21T16:00:29.823Z,3.95
2023-05-21T16:02:57.301Z,4.20
2023-05-21T16:05:24.556Z,4.05
2023-05-21T16:07:51.668Z,4.37
2023-05-21T16:10:19.164Z,3.97
2023-05-21T16:12:46.300Z,3.80
2023-05-21T16:15:13.670Z,4.10
2023-05-21T16:17:41.255Z,4.50
2023-05-21T16:20:08.608Z,5.47
2023-05-21T16:22:35.753Z,5.07
2023-05-21T16:25:03.308Z,4.07
2023-05-21T16:27:30.523Z,4.05
2023-05-21T16:29:58.336Z,3.90
2023-05-21T16:32:25.818Z,3.92
2023-05-21T16:34:52.977Z,4.40
2023-05-21T16:37:20.076Z,4.10
2023-05-21T16:39:47.480Z,4.30
2023-05-21T16:42:14.622Z,3.87
2023-05-21T16:44:41.716Z,4.03
2023-05-21T16:47:09.121Z,3.85
2023-05-21T16:49:36.256Z,3.87
2023-05-21T16:52:03.463Z,4.35
2023-05-21T16:54:30.932Z,3.90
2023-05-21T16:56:58.090Z,4.00
2023-05-21T16:59:25.215Z,4.00
2023-05-21T17:01:52.682Z,4.10
2023-05-21T17:04:19.824Z,3.90
2023-05-21T17:06:46.976Z,4.15
2023-05-21T17:09:14.300Z,5.72
2023-05-21T17:11:43.084Z,4.18
2023-05-21T17:14:11.979Z,5.50
2023-05-21T17:16:42.917Z,3.62
2023-05-21T17:19:10.089Z,4.40
2023-05-21T17:21:37.266Z,4.43
2023-05-21T17:24:05.392Z,4.80
2023-05-21T17:26:32.532Z,3.90
2023-05-21T17:28:59.592Z,4.05
2023-05-21T17:31:26.952Z,3.92
2023-05-21T17:33:56.309Z,4.00
2023-05-21T17:36:23.396Z,4.35
2023-05-21T17:38:50.882Z,3.95
2023-05-21T17:41:19.120Z,3.92
2023-05-21T17:43:46.402Z,4.43
2023-05-21T17:46:18.180Z,3.92
2023-05-21T17:48:45.629Z,4.15
2023-05-21T17:51:13.041Z,4.57
2023-05-21T17:53:41.192Z,3.80
2023-05-21T17:56:08.338Z,4.10
2023-05-21T17:58:35.432Z,4.72
2023-05-21T18:01:03.037Z,4.30
2023-05-21T18:03:30.515Z,5.95
2023-05-21T18:05:57.622Z,4.97
2023-05-21T18:08:24.806Z,4.12
2023-05-21T18:10:52.220Z,4.40
2023-05-21T18:13:19.350Z,4.22
2023-05-21T18:15:46.492Z,5.18
2023-05-21T18:18:19.846Z,6.05
2023-05-21T18:20:47.894Z,4.43
2023-05-21T18:23:15.378Z,4.03
2023-05-21T18:25:42.474Z,4.40
2023-05-21T18:28:10.093Z,4.07
2023-05-21T18:30:37.654Z,4.30
2023-05-21T18:33:05.029Z,4.40
2023-05-21T18:35:32.184Z,4.30
2023-05-21T18:37:59.563Z,4.68
2023-05-21T18:40:30.462Z,4.57
2023-05-21T18:42:57.913Z,4.47
2023-05-21T18:45:25.423Z,4.93
2023-05-21T18:47:52.460Z,4.90
2023-05-21T18:50:20.520Z,5.03
2023-05-21T18:52:48.382Z,4.40
2023-05-21T18:55:15.527Z,4.72
2023-05-21T18:57:42.616Z,4.65
2023-05-21T19:00:10.661Z,4.80
2023-05-21T19:02:38.150Z,4.70
2023-05-21T19:05:07.143Z,4.87
2023-05-21T19:07:34.727Z,4.87
2023-05-21T19:10:02.216Z,5.50
2023-05-21T19:12:31.353Z,4.93
2023-05-21T19:14:58.824Z,5.05
2023-05-21T19:17:25.922Z,5.55
2023-05-21T19:19:56.156Z,5.60
2023-05-21T19:22:24.452Z,5.85
2023-05-21T19:24:51.740Z,4.95
2023-05-21T19:27:19.210Z,5.57
2023-05-21T19:29:47.409Z,4.90
2023-05-21T19:32:16.160Z,5.45
2023-05-21T19:34:43.394Z,4.90
2023-05-21T19:37:10.820Z,4.65
2023-05-21T19:39:41.813Z,4.82
2023-05-21T19:42:09.666Z,4.85
2023-05-21T19:44:40.528Z,4.57
2023-05-21T19:47:07.868Z,5.00
2023-05-21T19:49:34.987Z,4.87
2023-05-21T19:52:02.592Z,4.35
2023-05-21T19:54:29.693Z,4.70
2023-05-21T19:56:57.356Z,4.53
2023-05-21T19:59:24.891Z,4.75
2023-05-21T20:01:52.332Z,5.43
2023-05-21T20:04:19.905Z,4.93
2023-05-21T20:06:47.244Z,4.68
2023-05-21T20:09:16.308Z,4.70
2023-05-21T20:11:43.866Z,4.68
2023-05-21T20:14:10.927Z,4.32
2023-05-21T20:16:38.145Z,5.03
2023-05-21T20:19:05.847Z,4.93
2023-05-21T20:21:33.151Z,4.70
2023-05-21T20:24:00.394Z,5.20
2023-05-21T20:26:27.805Z,5.10
2023-05-21T20:28:54.944Z,5.22
2023-05-21T20:31:22.541Z,4.60
2023-05-21T20:33:50.645Z,4.65
2023-05-21T20:36:18.505Z,4.65
2023-05-21T20:38:45.783Z,5.00
2023-05-21T20:41:13.343Z,4.60
2023-05-21T20:43:40.868Z,5.18
2023-05-21T20:46:08.070Z,4.95
2023-05-21T20:48:35.597Z,4.55
2023-05-21T20:51:04.685Z,4.55
2023-05-21T20:53:32.060Z,4.93
2023-05-21T20:56:01.590Z,4.62
2023-05-21T20:58:28.897Z,4.68
2023-05-21T21:00:56.019Z,5.03
2023-05-21T21:03:23.936Z,4.55
2023-05-21T21:05:52.806Z,4.45
2023-05-21T21:08:20.006Z,4.57
2023-05-21T21:10:47.421Z,4.40
2023-05-21T21:13:14.620Z,4.55
2023-05-21T21:15:43.917Z,4.87
2023-05-21T21:18:14.324Z,4.75
2023-05-21T21:20:42.631Z,4.78
2023-05-21T21:23:09.713Z,5.07
2023-05-21T21:25:37.226Z,4.57
2023-05-21T21:28:04.519Z,5.50
2023-05-21T21:30:31.731Z,4.37
2023-05-21T21:32:59.302Z,4.72
2023-05-21T21:35:26.412Z,4.55
2023-05-21T21:37:53.556Z,4.35
2023-05-21T21:40:21.206Z,4.78
2023-05-21T21:42:48.647Z,4.72
2023-05-21T21:45:15.871Z,5.22
2023-05-21T21:47:43.307Z,4.57
2023-05-21T21:50:10.822Z,4.87
2023-05-21T21:52:40.060Z,5.07
2023-05-21T21:55:08.306Z,4.87
2023-05-21T21:57:35.710Z,5.18
2023-05-21T22:00:11.098Z,5.00
2023-05-21T22:02:40.206Z,4.85
2023-05-21T22:05:08.734Z,4.62
2023-05-21T22:07:38.662Z,4.53
2023-05-21T22:10:06.495Z,4.97
2023-05-21T22:12:34.264Z,4.45
2023-05-21T22:15:05.005Z,5.15
2023-05-21T22:17:32.961Z,4.82
2023-05-21T22:20:01.005Z,5.12
2023-05-21T22:22:28.179Z,4.55
2023-05-21T22:24:55.711Z,4.62
2023-05-21T22:27:22.870Z,5.00
2023-05-21T22:29:50.055Z,5.10
2023-05-21T22:32:17.792Z,5.30
2023-05-21T22:34:44.897Z,5.30
2023-05-21T22:37:12.349Z,5.05
2023-05-21T22:39:39.836Z,3.92
2023-05-21T22:42:07.017Z,4.90
2023-05-21T22:44:34.302Z,4.25
2023-05-21T22:47:03.724Z,4.40
2023-05-21T22:49:32.697Z,4.18
2023-05-21T22:52:05.078Z,4.28
2023-05-21T22:54:32.954Z,4.18
2023-05-21T22:57:01.461Z,4.15
2023-05-21T22:59:28.951Z,3.75
2023-05-21T23:01:56.437Z,3.85
2023-05-21T23:04:35.762Z,3.95
2023-05-21T23:07:03.882Z,4.00
2023-05-21T23:09:31.006Z,3.67
2023-05-21T23:11:58.113Z,3.70
2023-05-21T23:14:25.808Z,3.83
2023-05-21T23:16:53.902Z,4.25
2023-05-21T23:19:21.338Z,4.40
2023-05-21T23:21:49.091Z,3.90
2023-05-21T23:24:16.251Z,4.55
2023-05-21T23:26:43.334Z,4.72
2023-05-21T23:29:10.791Z,3.90
2023-05-21T23:31:38.954Z,4.05
2023-05-21T23:34:06.263Z,3.90
2023-05-21T23:36:33.736Z,3.97
2023-05-21T23:39:00.995Z,4.30
2023-05-21T23:41:28.223Z,3.85
2023-05-21T23:43:55.923Z,3.85
2023-05-21T23:46:23.252Z,4.35
2023-05-21T23:48:50.524Z,4.18
2023-05-21T23:51:19.269Z,4.37
2023-05-21T23:53:46.383Z,4.30
2023-05-21T23:56:13.556Z,4.47
2023-05-21T23:58:41.166Z,5.75
